sensor_id;sensor_type;location;lat;lon;timestamp;P1;durP1;ratioP1;P2;durP2;ratioP2
62724;SDS011;49026;52.600;4.694;2023-08-20T00:00:49;11.38;;;1.90;;
62724;SDS011;49026;52.600;4.694;2023-08-20T00:03:16;14.18;;;2.78;;
62724;SDS011;49026;52.600;4.694;2023-08-20T00:05:42;14.70;;;1.80;;
62724;SDS011;49026;52.600;4.694;2023-08-20T00:08:07;14.25;;;1.95;;
62724;SDS011;49026;52.600;4.694;2023-08-20T00:10:33;10.40;;;1.88;;
62724;SDS011;49026;52.600;4.694;2023-08-20T00:12:58;13.98;;;2.40;;
62724;SDS011;49026;52.600;4.694;2023-08-20T00:15:27;18.35;;;2.50;;
62724;SDS011;49026;52.600;4.694;2023-08-20T00:17:53;20.40;;;2.67;;
62724;SDS011;49026;52.600;4.694;2023-08-20T00:20:22;16.75;;;2.17;;
62724;SDS011;49026;52.600;4.694;2023-08-20T00:22:48;9.05;;;1.98;;
62724;SDS011;49026;52.600;4.694;2023-08-20T00:25:17;15.68;;;2.28;;
62724;SDS011;49026;52.600;4.694;2023-08-20T00:27:43;12.40;;;2.00;;
62724;SDS011;49026;52.600;4.694;2023-08-20T00:30:09;14.25;;;2.35;;
62724;SDS011;49026;52.600;4.694;2023-08-20T00:32:35;9.57;;;2.45;;
62724;SDS011;49026;52.600;4.694;2023-08-20T00:35:01;16.90;;;2.35;;
62724;SDS011;49026;52.600;4.694;2023-08-20T00:37:32;12.45;;;1.95;;
62724;SDS011;49026;52.600;4.694;2023-08-20T00:39:57;17.92;;;2.03;;
62724;SDS011;49026;52.600;4.694;2023-08-20T00:42:23;12.32;;;2.20;;
62724;SDS011;49026;52.600;4.694;2023-08-20T00:44:53;8.35;;;1.88;;
62724;SDS011;49026;52.600;4.694;2023-08-20T00:47:18;12.48;;;2.30;;
62724;SDS011;49026;52.600;4.694;2023-08-20T00:49:45;14.85;;;2.55;;
62724;SDS011;49026;52.600;4.694;2023-08-20T00:52:12;10.23;;;2.80;;
62724;SDS011;49026;52.600;4.694;2023-08-20T00:54:42;13.40;;;2.40;;
62724;SDS011;49026;52.600;4.694;2023-08-20T00:57:09;10.75;;;2.25;;
62724;SDS011;49026;52.600;4.694;2023-08-20T00:59:35;11.30;;;2.10;;
62724;SDS011;49026;52.600;4.694;2023-08-20T01:02:01;10.30;;;2.80;;
62724;SDS011;49026;52.600;4.694;2023-08-20T01:04:28;12.88;;;3.03;;
62724;SDS011;49026;52.600;4.694;2023-08-20T01:12:22;13.30;;;2.50;;
62724;SDS011;49026;52.600;4.694;2023-08-20T01:14:49;14.02;;;2.40;;
62724;SDS011;49026;52.600;4.694;2023-08-20T01:17:14;12.65;;;2.00;;
62724;SDS011;49026;52.600;4.694;2023-08-20T01:19:39;14.38;;;2.20;;
62724;SDS011;49026;52.600;4.694;2023-08-20T01:29:48;12.77;;;2.20;;
62724;SDS011;49026;52.600;4.694;2023-08-20T01:32:16;10.60;;;2.58;;
62724;SDS011;49026;52.600;4.694;2023-08-20T01:34:46;12.50;;;2.55;;
62724;SDS011;49026;52.600;4.694;2023-08-20T01:37:15;10.93;;;2.17;;
62724;SDS011;49026;52.600;4.694;2023-08-20T01:39:41;17.20;;;3.25;;
62724;SDS011;49026;52.600;4.694;2023-08-20T01:42:07;13.27;;;2.35;;
62724;SDS011;49026;52.600;4.694;2023-08-20T01:44:32;12.15;;;2.28;;
62724;SDS011;49026;52.600;4.694;2023-08-20T01:46:57;9.88;;;2.25;;
62724;SDS011;49026;52.600;4.694;2023-08-20T01:49:23;12.82;;;3.42;;
62724;SDS011;49026;52.600;4.694;2023-08-20T01:51:48;9.23;;;2.58;;
62724;SDS011;49026;52.600;4.694;2023-08-20T01:54:13;11.10;;;3.22;;
62724;SDS011;49026;52.600;4.694;2023-08-20T01:56:41;12.25;;;3.05;;
62724;SDS011;49026;52.600;4.694;2023-08-20T01:59:06;19.25;;;3.05;;
62724;SDS011;49026;52.600;4.694;2023-08-20T02:01:32;16.48;;;3.13;;
62724;SDS011;49026;52.600;4.694;2023-08-20T02:03:59;15.25;;;2.92;;
62724;SDS011;49026;52.600;4.694;2023-08-20T02:06:25;15.82;;;3.38;;
62724;SDS011;49026;52.600;4.694;2023-08-20T02:08:51;16.67;;;2.55;;
62724;SDS011;49026;52.600;4.694;2023-08-20T02:11:16;12.85;;;2.88;;
62724;SDS011;49026;52.600;4.694;2023-08-20T02:13:41;13.70;;;2.75;;
62724;SDS011;49026;52.600;4.694;2023-08-20T02:16:14;14.35;;;3.03;;
62724;SDS011;49026;52.600;4.694;2023-08-20T02:18:41;13.50;;;2.63;;
62724;SDS011;49026;52.600;4.694;2023-08-20T02:21:06;17.50;;;3.38;;
62724;SDS011;49026;52.600;4.694;2023-08-20T02:23:32;11.25;;;3.40;;
62724;SDS011;49026;52.600;4.694;2023-08-20T02:25:57;12.48;;;3.33;;
62724;SDS011;49026;52.600;4.694;2023-08-20T02:28:23;17.75;;;3.42;;
62724;SDS011;49026;52.600;4.694;2023-08-20T02:30:48;13.43;;;2.75;;
62724;SDS011;49026;52.600;4.694;2023-08-20T02:33:16;15.85;;;3.10;;
62724;SDS011;49026;52.600;4.694;2023-08-20T02:35:46;12.32;;;3.22;;
62724;SDS011;49026;52.600;4.694;2023-08-20T02:38:11;17.38;;;3.13;;
62724;SDS011;49026;52.600;4.694;2023-08-20T02:40:40;18.17;;;3.92;;
62724;SDS011;49026;52.600;4.694;2023-08-20T02:43:06;18.90;;;3.30;;
62724;SDS011;49026;52.600;4.694;2023-08-20T02:45:32;16.38;;;3.13;;
62724;SDS011;49026;52.600;4.694;2023-08-20T02:47:57;16.95;;;3.30;;
62724;SDS011;49026;52.600;4.694;2023-08-20T02:50:22;18.20;;;3.58;;
62724;SDS011;49026;52.600;4.694;2023-08-20T02:52:48;14.88;;;3.60;;
62724;SDS011;49026;52.600;4.694;2023-08-20T02:55:13;15.98;;;3.05;;
62724;SDS011;49026;52.600;4.694;2023-08-20T02:57:38;17.42;;;3.17;;
62724;SDS011;49026;52.600;4.694;2023-08-20T03:00:04;19.33;;;4.22;;
62724;SDS011;49026;52.600;4.694;2023-08-20T03:02:30;21.27;;;4.38;;
62724;SDS011;49026;52.600;4.694;2023-08-20T03:04:55;29.65;;;4.53;;
62724;SDS011;49026;52.600;4.694;2023-08-20T03:07:25;17.63;;;4.82;;
62724;SDS011;49026;52.600;4.694;2023-08-20T03:09:51;21.73;;;5.80;;
62724;SDS011;49026;52.600;4.694;2023-08-20T03:12:16;17.15;;;5.28;;
62724;SDS011;49026;52.600;4.694;2023-08-20T03:14:44;28.98;;;6.13;;
62724;SDS011;49026;52.600;4.694;2023-08-20T03:17:12;21.25;;;5.25;;
62724;SDS011;49026;52.600;4.694;2023-08-20T03:19:37;18.88;;;4.85;;
62724;SDS011;49026;52.600;4.694;2023-08-20T03:22:19;25.65;;;5.80;;
62724;SDS011;49026;52.600;4.694;2023-08-20T03:24:45;24.52;;;6.32;;
62724;SDS011;49026;52.600;4.694;2023-08-20T03:27:13;22.15;;;5.68;;
62724;SDS011;49026;52.600;4.694;2023-08-20T03:29:38;31.90;;;6.22;;
62724;SDS011;49026;52.600;4.694;2023-08-20T03:32:04;29.98;;;6.68;;
62724;SDS011;49026;52.600;4.694;2023-08-20T03:34:29;31.33;;;6.57;;
62724;SDS011;49026;52.600;4.694;2023-08-20T03:36:57;31.38;;;6.65;;
62724;SDS011;49026;52.600;4.694;2023-08-20T03:39:24;27.95;;;5.03;;
62724;SDS011;49026;52.600;4.694;2023-08-20T03:41:52;33.35;;;5.22;;
62724;SDS011;49026;52.600;4.694;2023-08-20T03:44:20;26.65;;;5.47;;
62724;SDS011;49026;52.600;4.694;2023-08-20T03:46:46;26.50;;;5.88;;
62724;SDS011;49026;52.600;4.694;2023-08-20T03:49:13;25.20;;;5.60;;
62724;SDS011;49026;52.600;4.694;2023-08-20T03:51:39;20.85;;;4.97;;
62724;SDS011;49026;52.600;4.694;2023-08-20T03:54:07;26.33;;;5.55;;
62724;SDS011;49026;52.600;4.694;2023-08-20T03:56:32;29.90;;;5.03;;
62724;SDS011;49026;52.600;4.694;2023-08-20T03:58:58;24.50;;;4.90;;
62724;SDS011;49026;52.600;4.694;2023-08-20T04:01:25;26.73;;;6.03;;
62724;SDS011;49026;52.600;4.694;2023-08-20T04:03:50;22.20;;;5.22;;
62724;SDS011;49026;52.600;4.694;2023-08-20T04:06:16;38.25;;;5.57;;
62724;SDS011;49026;52.600;4.694;2023-08-20T04:08:41;25.25;;;5.43;;
62724;SDS011;49026;52.600;4.694;2023-08-20T04:11:07;26.27;;;5.57;;
62724;SDS011;49026;52.600;4.694;2023-08-20T04:13:33;26.25;;;4.97;;
62724;SDS011;49026;52.600;4.694;2023-08-20T04:16:01;26.23;;;5.78;;
62724;SDS011;49026;52.600;4.694;2023-08-20T04:18:26;26.88;;;5.22;;
62724;SDS011;49026;52.600;4.694;2023-08-20T04:20:52;30.90;;;5.90;;
62724;SDS011;49026;52.600;4.694;2023-08-20T04:23:18;21.00;;;5.20;;
62724;SDS011;49026;52.600;4.694;2023-08-20T04:25:44;26.35;;;5.63;;
62724;SDS011;49026;52.600;4.694;2023-08-20T04:28:10;26.80;;;5.72;;
62724;SDS011;49026;52.600;4.694;2023-08-20T04:30:36;32.58;;;6.45;;
62724;SDS011;49026;52.600;4.694;2023-08-20T04:33:02;28.45;;;5.53;;
62724;SDS011;49026;52.600;4.694;2023-08-20T04:35:28;30.10;;;4.50;;
62724;SDS011;49026;52.600;4.694;2023-08-20T04:37:55;33.67;;;4.85;;
62724;SDS011;49026;52.600;4.694;2023-08-20T04:40:21;25.40;;;5.22;;
62724;SDS011;49026;52.600;4.694;2023-08-20T04:42:49;29.50;;;4.43;;
62724;SDS011;49026;52.600;4.694;2023-08-20T04:45:14;26.45;;;4.70;;
62724;SDS011;49026;52.600;4.694;2023-08-20T04:47:44;24.58;;;5.05;;
62724;SDS011;49026;52.600;4.694;2023-08-20T04:50:10;26.55;;;4.57;;
62724;SDS011;49026;52.600;4.694;2023-08-20T04:52:35;19.80;;;3.85;;
62724;SDS011;49026;52.600;4.694;2023-08-20T04:55:01;25.00;;;4.15;;
62724;SDS011;49026;52.600;4.694;2023-08-20T04:57:29;22.25;;;3.85;;
62724;SDS011;49026;52.600;4.694;2023-08-20T04:59:57;23.50;;;5.05;;
62724;SDS011;49026;52.600;4.694;2023-08-20T05:02:22;24.33;;;4.32;;
62724;SDS011;49026;52.600;4.694;2023-08-20T05:04:50;29.80;;;4.63;;
62724;SDS011;49026;52.600;4.694;2023-08-20T05:07:15;33.13;;;5.68;;
62724;SDS011;49026;52.600;4.694;2023-08-20T05:09:41;44.92;;;5.65;;
62724;SDS011;49026;52.600;4.694;2023-08-20T05:12:09;30.85;;;5.65;;
62724;SDS011;49026;52.600;4.694;2023-08-20T05:14:37;26.73;;;5.45;;
62724;SDS011;49026;52.600;4.694;2023-08-20T05:17:03;44.22;;;5.10;;
62724;SDS011;49026;52.600;4.694;2023-08-20T05:19:28;25.75;;;4.53;;
62724;SDS011;49026;52.600;4.694;2023-08-20T05:21:54;27.23;;;4.72;;
62724;SDS011;49026;52.600;4.694;2023-08-20T05:24:21;24.02;;;4.40;;
62724;SDS011;49026;52.600;4.694;2023-08-20T05:26:49;19.77;;;4.20;;
62724;SDS011;49026;52.600;4.694;2023-08-20T05:29:28;25.77;;;4.15;;
62724;SDS011;49026;52.600;4.694;2023-08-20T05:31:54;22.25;;;4.18;;
62724;SDS011;49026;52.600;4.694;2023-08-20T05:34:19;22.98;;;3.85;;
62724;SDS011;49026;52.600;4.694;2023-08-20T05:36:45;20.77;;;3.80;;
62724;SDS011;49026;52.600;4.694;2023-08-20T05:39:10;26.42;;;3.92;;
62724;SDS011;49026;52.600;4.694;2023-08-20T05:41:47;18.80;;;3.72;;
62724;SDS011;49026;52.600;4.694;2023-08-20T05:44:12;29.20;;;4.28;;
62724;SDS011;49026;52.600;4.694;2023-08-20T05:46:38;21.38;;;3.78;;
62724;SDS011;49026;52.600;4.694;2023-08-20T05:49:05;25.95;;;4.35;;
62724;SDS011;49026;52.600;4.694;2023-08-20T05:51:31;24.60;;;3.92;;
62724;SDS011;49026;52.600;4.694;2023-08-20T05:53:57;23.70;;;3.50;;
62724;SDS011;49026;52.600;4.694;2023-08-20T05:56:22;18.25;;;3.83;;
62724;SDS011;49026;52.600;4.694;2023-08-20T05:58:47;20.17;;;3.67;;
62724;SDS011;49026;52.600;4.694;2023-08-20T06:01:13;13.15;;;3.80;;
62724;SDS011;49026;52.600;4.694;2023-08-20T06:03:41;23.30;;;3.53;;
62724;SDS011;49026;52.600;4.694;2023-08-20T06:06:06;16.77;;;4.07;;
62724;SDS011;49026;52.600;4.694;2023-08-20T06:08:32;19.25;;;4.25;;
62724;SDS011;49026;52.600;4.694;2023-08-20T06:10:57;12.20;;;2.75;;
62724;SDS011;49026;52.600;4.694;2023-08-20T06:13:23;19.10;;;3.88;;
62724;SDS011;49026;52.600;4.694;2023-08-20T06:15:48;10.95;;;2.97;;
62724;SDS011;49026;52.600;4.694;2023-08-20T06:18:14;17.55;;;3.05;;
62724;SDS011;49026;52.600;4.694;2023-08-20T06:20:39;19.58;;;3.00;;
62724;SDS011;49026;52.600;4.694;2023-08-20T06:23:04;11.77;;;2.92;;
62724;SDS011;49026;52.600;4.694;2023-08-20T06:25:30;20.60;;;3.00;;
62724;SDS011;49026;52.600;4.694;2023-08-20T06:27:55;13.40;;;3.28;;
62724;SDS011;49026;52.600;4.694;2023-08-20T06:30:20;14.15;;;2.40;;
62724;SDS011;49026;52.600;4.694;2023-08-20T06:32:46;15.18;;;2.20;;
62724;SDS011;49026;52.600;4.694;2023-08-20T06:35:11;18.65;;;2.70;;
62724;SDS011;49026;52.600;4.694;2023-08-20T06:37:38;12.10;;;2.00;;
62724;SDS011;49026;52.600;4.694;2023-08-20T06:40:05;9.40;;;2.20;;
62724;SDS011;49026;52.600;4.694;2023-08-20T06:42:31;12.43;;;2.10;;
62724;SDS011;49026;52.600;4.694;2023-08-20T06:44:57;14.40;;;2.00;;
62724;SDS011;49026;52.600;4.694;2023-08-20T06:47:22;10.60;;;2.25;;
62724;SDS011;49026;52.600;4.694;2023-08-20T06:49:49;11.23;;;2.15;;
62724;SDS011;49026;52.600;4.694;2023-08-20T06:52:15;15.43;;;2.67;;
62724;SDS011;49026;52.600;4.694;2023-08-20T06:54:40;10.15;;;1.85;;
62724;SDS011;49026;52.600;4.694;2023-08-20T06:57:06;10.88;;;1.95;;
62724;SDS011;49026;52.600;4.694;2023-08-20T06:59:31;11.35;;;1.88;;
62724;SDS011;49026;52.600;4.694;2023-08-20T07:01:57;14.27;;;2.38;;
62724;SDS011;49026;52.600;4.694;2023-08-20T07:04:22;12.13;;;2.58;;
62724;SDS011;49026;52.600;4.694;2023-08-20T07:06:47;12.35;;;2.67;;
62724;SDS011;49026;52.600;4.694;2023-08-20T07:09:13;14.77;;;2.40;;
62724;SDS011;49026;52.600;4.694;2023-08-20T07:11:38;13.85;;;2.17;;
62724;SDS011;49026;52.600;4.694;2023-08-20T07:14:04;15.38;;;2.40;;
62724;SDS011;49026;52.600;4.694;2023-08-20T07:16:29;11.43;;;1.88;;
62724;SDS011;49026;52.600;4.694;2023-08-20T07:18:54;15.30;;;2.30;;
62724;SDS011;49026;52.600;4.694;2023-08-20T07:21:20;14.05;;;2.42;;
62724;SDS011;49026;52.600;4.694;2023-08-20T07:23:49;10.90;;;1.98;;
62724;SDS011;49026;52.600;4.694;2023-08-20T07:26:14;11.02;;;2.55;;
62724;SDS011;49026;52.600;4.694;2023-08-20T07:28:40;12.35;;;2.10;;
62724;SDS011;49026;52.600;4.694;2023-08-20T07:31:25;11.88;;;1.75;;
62724;SDS011;49026;52.600;4.694;2023-08-20T07:33:52;11.50;;;3.00;;
62724;SDS011;49026;52.600;4.694;2023-08-20T07:36:19;9.75;;;2.33;;
62724;SDS011;49026;52.600;4.694;2023-08-20T07:38:48;12.25;;;2.53;;
62724;SDS011;49026;52.600;4.694;2023-08-20T07:41:14;12.80;;;2.13;;
62724;SDS011;49026;52.600;4.694;2023-08-20T07:43:40;12.65;;;2.38;;
62724;SDS011;49026;52.600;4.694;2023-08-20T07:46:06;11.32;;;2.03;;
62724;SDS011;49026;52.600;4.694;2023-08-20T07:48:32;13.38;;;2.15;;
62724;SDS011;49026;52.600;4.694;2023-08-20T07:50:58;13.60;;;1.92;;
62724;SDS011;49026;52.600;4.694;2023-08-20T07:53:26;11.82;;;2.10;;
62724;SDS011;49026;52.600;4.694;2023-08-20T07:55:52;14.35;;;2.85;;
62724;SDS011;49026;52.600;4.694;2023-08-20T07:58:18;13.35;;;1.67;;
62724;SDS011;49026;52.600;4.694;2023-08-20T08:00:46;8.30;;;2.15;;
62724;SDS011;49026;52.600;4.694;2023-08-20T08:03:11;15.60;;;2.40;;
62724;SDS011;49026;52.600;4.694;2023-08-20T08:05:39;10.63;;;2.17;;
62724;SDS011;49026;52.600;4.694;2023-08-20T08:08:17;6.75;;;1.58;;
62724;SDS011;49026;52.600;4.694;2023-08-20T08:10:43;11.75;;;2.22;;
62724;SDS011;49026;52.600;4.694;2023-08-20T08:13:12;8.70;;;2.05;;
62724;SDS011;49026;52.600;4.694;2023-08-20T08:15:44;10.20;;;1.65;;
62724;SDS011;49026;52.600;4.694;2023-08-20T08:18:09;14.43;;;2.90;;
62724;SDS011;49026;52.600;4.694;2023-08-20T08:20:35;11.18;;;2.33;;
62724;SDS011;49026;52.600;4.694;2023-08-20T08:23:00;8.73;;;2.15;;
62724;SDS011;49026;52.600;4.694;2023-08-20T08:25:27;9.68;;;2.00;;
62724;SDS011;49026;52.600;4.694;2023-08-20T08:27:58;6.63;;;1.60;;
62724;SDS011;49026;52.600;4.694;2023-08-20T08:30:23;11.45;;;2.00;;
62724;SDS011;49026;52.600;4.694;2023-08-20T08:32:49;9.48;;;1.60;;
62724;SDS011;49026;52.600;4.694;2023-08-20T08:35:18;8.90;;;1.60;;
62724;SDS011;49026;52.600;4.694;2023-08-20T08:37:49;8.37;;;1.37;;
62724;SDS011;49026;52.600;4.694;2023-08-20T08:40:15;12.73;;;2.53;;
62724;SDS011;49026;52.600;4.694;2023-08-20T08:42:58;5.13;;;1.30;;
62724;SDS011;49026;52.600;4.694;2023-08-20T08:45:27;8.10;;;2.30;;
62724;SDS011;49026;52.600;4.694;2023-08-20T08:47:56;13.98;;;2.53;;
62724;SDS011;49026;52.600;4.694;2023-08-20T08:50:21;7.45;;;1.63;;
62724;SDS011;49026;52.600;4.694;2023-08-20T08:52:50;11.63;;;2.90;;
62724;SDS011;49026;52.600;4.694;2023-08-20T08:55:18;12.50;;;2.22;;
62724;SDS011;49026;52.600;4.694;2023-08-20T08:57:44;10.85;;;2.50;;
62724;SDS011;49026;52.600;4.694;2023-08-20T09:00:10;8.60;;;1.85;;
62724;SDS011;49026;52.600;4.694;2023-08-20T09:02:36;12.63;;;2.38;;
62724;SDS011;49026;52.600;4.694;2023-08-20T09:05:01;15.82;;;2.38;;
62724;SDS011;49026;52.600;4.694;2023-08-20T09:07:27;13.00;;;2.30;;
62724;SDS011;49026;52.600;4.694;2023-08-20T09:09:57;11.68;;;2.17;;
62724;SDS011;49026;52.600;4.694;2023-08-20T09:12:24;10.38;;;1.67;;
62724;SDS011;49026;52.600;4.694;2023-08-20T09:14:59;9.88;;;2.08;;
62724;SDS011;49026;52.600;4.694;2023-08-20T09:17:28;10.27;;;1.58;;
62724;SDS011;49026;52.600;4.694;2023-08-20T09:19:55;11.85;;;2.17;;
62724;SDS011;49026;52.600;4.694;2023-08-20T09:22:26;11.27;;;2.15;;
62724;SDS011;49026;52.600;4.694;2023-08-20T09:24:53;13.18;;;1.98;;
62724;SDS011;49026;52.600;4.694;2023-08-20T09:27:22;9.23;;;1.65;;
62724;SDS011;49026;52.600;4.694;2023-08-20T09:29:49;12.90;;;2.47;;
62724;SDS011;49026;52.600;4.694;2023-08-20T09:34:48;12.82;;;2.22;;
62724;SDS011;49026;52.600;4.694;2023-08-20T09:37:21;11.20;;;2.33;;
62724;SDS011;49026;52.600;4.694;2023-08-20T09:39:53;12.32;;;2.55;;
62724;SDS011;49026;52.600;4.694;2023-08-20T09:42:21;14.18;;;1.75;;
62724;SDS011;49026;52.600;4.694;2023-08-20T09:44:53;9.00;;;1.90;;
62724;SDS011;49026;52.600;4.694;2023-08-20T09:47:23;11.68;;;2.40;;
62724;SDS011;49026;52.600;4.694;2023-08-20T09:50:01;9.48;;;2.28;;
62724;SDS011;49026;52.600;4.694;2023-08-20T09:52:39;11.05;;;2.00;;
62724;SDS011;49026;52.600;4.694;2023-08-20T09:55:08;10.88;;;2.35;;
62724;SDS011;49026;52.600;4.694;2023-08-20T09:57:39;10.65;;;2.20;;
62724;SDS011;49026;52.600;4.694;2023-08-20T10:00:17;12.65;;;2.03;;
62724;SDS011;49026;52.600;4.694;2023-08-20T10:02:42;11.50;;;2.13;;
62724;SDS011;49026;52.600;4.694;2023-08-20T10:05:10;8.95;;;1.75;;
62724;SDS011;49026;52.600;4.694;2023-08-20T10:07:36;11.63;;;1.63;;
62724;SDS011;49026;52.600;4.694;2023-08-20T10:10:03;10.93;;;2.22;;
62724;SDS011;49026;52.600;4.694;2023-08-20T10:12:33;11.85;;;2.47;;
62724;SDS011;49026;52.600;4.694;2023-08-20T10:15:00;9.10;;;2.53;;
62724;SDS011;49026;52.600;4.694;2023-08-20T10:17:30;8.40;;;2.00;;
62724;SDS011;49026;52.600;4.694;2023-08-20T10:20:02;9.52;;;2.05;;
62724;SDS011;49026;52.600;4.694;2023-08-20T10:22:39;13.95;;;2.47;;
62724;SDS011;49026;52.600;4.694;2023-08-20T10:25:06;12.55;;;2.08;;
62724;SDS011;49026;52.600;4.694;2023-08-20T10:27:49;7.63;;;2.08;;
62724;SDS011;49026;52.600;4.694;2023-08-20T10:30:23;10.75;;;2.33;;
62724;SDS011;49026;52.600;4.694;2023-08-20T10:32:57;13.75;;;1.92;;
62724;SDS011;49026;52.600;4.694;2023-08-20T10:35:26;14.00;;;2.63;;
62724;SDS011;49026;52.600;4.694;2023-08-20T10:43:31;6.13;;;1.55;;
62724;SDS011;49026;52.600;4.694;2023-08-20T10:48:39;12.13;;;2.40;;
62724;SDS011;49026;52.600;4.694;2023-08-20T10:51:09;12.98;;;2.55;;
62724;SDS011;49026;52.600;4.694;2023-08-20T10:53:35;11.90;;;1.95;;
62724;SDS011;49026;52.600;4.694;2023-08-20T10:56:11;12.98;;;2.28;;
62724;SDS011;49026;52.600;4.694;2023-08-20T10:58:40;13.13;;;1.80;;
62724;SDS011;49026;52.600;4.694;2023-08-20T11:01:15;9.73;;;2.08;;
62724;SDS011;49026;52.600;4.694;2023-08-20T11:03:46;13.30;;;2.10;;
62724;SDS011;49026;52.600;4.694;2023-08-20T11:06:13;8.38;;;1.70;;
62724;SDS011;49026;52.600;4.694;2023-08-20T11:08:42;7.38;;;1.40;;
62724;SDS011;49026;52.600;4.694;2023-08-20T11:11:16;10.18;;;2.20;;
62724;SDS011;49026;52.600;4.694;2023-08-20T11:13:43;6.72;;;1.83;;
62724;SDS011;49026;52.600;4.694;2023-08-20T11:16:09;10.52;;;1.90;;
62724;SDS011;49026;52.600;4.694;2023-08-20T11:18:34;10.88;;;2.00;;
62724;SDS011;49026;52.600;4.694;2023-08-20T11:21:00;7.57;;;1.58;;
62724;SDS011;49026;52.600;4.694;2023-08-20T11:23:26;10.82;;;1.38;;
62724;SDS011;49026;52.600;4.694;2023-08-20T11:25:56;9.82;;;1.65;;
62724;SDS011;49026;52.600;4.694;2023-08-20T11:28:22;13.57;;;1.80;;
62724;SDS011;49026;52.600;4.694;2023-08-20T11:30:49;8.20;;;1.70;;
62724;SDS011;49026;52.600;4.694;2023-08-20T11:33:16;7.28;;;1.90;;
62724;SDS011;49026;52.600;4.694;2023-08-20T11:35:42;7.35;;;1.30;;
62724;SDS011;49026;52.600;4.694;2023-08-20T11:38:10;9.10;;;1.88;;
62724;SDS011;49026;52.600;4.694;2023-08-20T11:40:36;9.02;;;1.92;;
62724;SDS011;49026;52.600;4.694;2023-08-20T11:43:02;12.60;;;1.90;;
62724;SDS011;49026;52.600;4.694;2023-08-20T11:45:27;7.40;;;1.65;;
62724;SDS011;49026;52.600;4.694;2023-08-20T11:47:56;8.27;;;1.60;;
62724;SDS011;49026;52.600;4.694;2023-08-20T11:50:27;9.35;;;1.75;;
62724;SDS011;49026;52.600;4.694;2023-08-20T11:52:52;9.30;;;1.98;;
62724;SDS011;49026;52.600;4.694;2023-08-20T11:55:22;8.98;;;2.00;;
62724;SDS011;49026;52.600;4.694;2023-08-20T11:57:50;12.02;;;3.03;;
62724;SDS011;49026;52.600;4.694;2023-08-20T12:02:54;9.05;;;1.95;;
62724;SDS011;49026;52.600;4.694;2023-08-20T12:07:58;7.20;;;1.48;;
62724;SDS011;49026;52.600;4.694;2023-08-20T12:10:25;14.13;;;1.70;;
62724;SDS011;49026;52.600;4.694;2023-08-20T12:12:52;8.50;;;1.77;;
62724;SDS011;49026;52.600;4.694;2023-08-20T12:15:19;6.75;;;1.48;;
62724;SDS011;49026;52.600;4.694;2023-08-20T12:18:01;7.35;;;1.48;;
62724;SDS011;49026;52.600;4.694;2023-08-20T12:20:31;11.52;;;2.10;;
62724;SDS011;49026;52.600;4.694;2023-08-20T12:22:59;8.45;;;1.80;;
62724;SDS011;49026;52.600;4.694;2023-08-20T12:25:26;8.30;;;1.45;;
62724;SDS011;49026;52.600;4.694;2023-08-20T12:27:52;10.90;;;1.95;;
62724;SDS011;49026;52.600;4.694;2023-08-20T12:30:18;9.98;;;2.17;;
62724;SDS011;49026;52.600;4.694;2023-08-20T12:32:43;10.43;;;1.90;;
62724;SDS011;49026;52.600;4.694;2023-08-20T12:35:08;7.60;;;1.77;;
62724;SDS011;49026;52.600;4.694;2023-08-20T12:37:34;6.68;;;1.63;;
62724;SDS011;49026;52.600;4.694;2023-08-20T12:39:59;10.45;;;2.47;;
62724;SDS011;49026;52.600;4.694;2023-08-20T12:42:26;7.18;;;1.50;;
62724;SDS011;49026;52.600;4.694;2023-08-20T12:44:51;6.28;;;1.38;;
62724;SDS011;49026;52.600;4.694;2023-08-20T12:47:17;6.18;;;1.35;;
62724;SDS011;49026;52.600;4.694;2023-08-20T12:49:42;8.32;;;1.60;;
62724;SDS011;49026;52.600;4.694;2023-08-20T12:52:08;9.55;;;1.48;;
62724;SDS011;49026;52.600;4.694;2023-08-20T12:54:33;9.68;;;1.52;;
62724;SDS011;49026;52.600;4.694;2023-08-20T12:56:58;9.07;;;1.60;;
62724;SDS011;49026;52.600;4.694;2023-08-20T12:59:24;5.68;;;1.30;;
62724;SDS011;49026;52.600;4.694;2023-08-20T13:01:49;7.72;;;1.38;;
62724;SDS011;49026;52.600;4.694;2023-08-20T13:04:15;9.38;;;1.73;;
62724;SDS011;49026;52.600;4.694;2023-08-20T13:06:40;7.85;;;1.83;;
62724;SDS011;49026;52.600;4.694;2023-08-20T13:09:06;7.13;;;1.48;;
62724;SDS011;49026;52.600;4.694;2023-08-20T13:11:34;6.97;;;1.35;;
62724;SDS011;49026;52.600;4.694;2023-08-20T13:14:01;11.02;;;1.70;;
62724;SDS011;49026;52.600;4.694;2023-08-20T13:16:26;7.32;;;1.48;;
62724;SDS011;49026;52.600;4.694;2023-08-20T13:18:52;5.15;;;1.40;;
62724;SDS011;49026;52.600;4.694;2023-08-20T13:21:18;9.40;;;1.50;;
62724;SDS011;49026;52.600;4.694;2023-08-20T13:23:43;7.43;;;1.40;;
62724;SDS011;49026;52.600;4.694;2023-08-20T13:26:09;10.88;;;1.58;;
62724;SDS011;49026;52.600;4.694;2023-08-20T13:28:34;9.35;;;1.80;;
62724;SDS011;49026;52.600;4.694;2023-08-20T13:31:00;7.18;;;1.60;;
62724;SDS011;49026;52.600;4.694;2023-08-20T13:33:25;8.10;;;1.55;;
62724;SDS011;49026;52.600;4.694;2023-08-20T13:35:51;5.70;;;1.20;;
62724;SDS011;49026;52.600;4.694;2023-08-20T13:38:17;10.02;;;1.58;;
62724;SDS011;49026;52.600;4.694;2023-08-20T13:40:44;9.13;;;1.40;;
62724;SDS011;49026;52.600;4.694;2023-08-20T13:43:09;7.55;;;1.40;;
62724;SDS011;49026;52.600;4.694;2023-08-20T13:45:35;6.97;;;1.33;;
62724;SDS011;49026;52.600;4.694;2023-08-20T13:48:00;8.07;;;1.20;;
62724;SDS011;49026;52.600;4.694;2023-08-20T13:50:26;4.93;;;1.10;;
62724;SDS011;49026;52.600;4.694;2023-08-20T13:52:51;8.13;;;1.33;;
62724;SDS011;49026;52.600;4.694;2023-08-20T13:55:16;6.72;;;1.55;;
62724;SDS011;49026;52.600;4.694;2023-08-20T13:57:42;9.25;;;1.83;;
62724;SDS011;49026;52.600;4.694;2023-08-20T14:00:07;4.80;;;1.20;;
62724;SDS011;49026;52.600;4.694;2023-08-20T14:02:37;5.47;;;0.98;;
62724;SDS011;49026;52.600;4.694;2023-08-20T14:05:05;5.90;;;1.25;;
62724;SDS011;49026;52.600;4.694;2023-08-20T14:07:31;5.60;;;1.20;;
62724;SDS011;49026;52.600;4.694;2023-08-20T14:10:00;4.80;;;1.27;;
62724;SDS011;49026;52.600;4.694;2023-08-20T14:12:26;7.15;;;1.30;;
62724;SDS011;49026;52.600;4.694;2023-08-20T14:14:52;5.88;;;1.20;;
62724;SDS011;49026;52.600;4.694;2023-08-20T14:17:17;5.88;;;1.20;;
62724;SDS011;49026;52.600;4.694;2023-08-20T14:19:43;7.95;;;1.60;;
62724;SDS011;49026;52.600;4.694;2023-08-20T14:22:08;7.30;;;1.30;;
62724;SDS011;49026;52.600;4.694;2023-08-20T14:24:34;7.53;;;1.25;;
62724;SDS011;49026;52.600;4.694;2023-08-20T14:26:59;7.35;;;1.48;;
62724;SDS011;49026;52.600;4.694;2023-08-20T14:29:24;7.53;;;1.10;;
62724;SDS011;49026;52.600;4.694;2023-08-20T14:31:50;7.95;;;1.73;;
62724;SDS011;49026;52.600;4.694;2023-08-20T14:34:15;5.20;;;1.00;;
62724;SDS011;49026;52.600;4.694;2023-08-20T14:36:41;6.13;;;1.20;;
62724;SDS011;49026;52.600;4.694;2023-08-20T14:39:06;8.38;;;1.00;;
62724;SDS011;49026;52.600;4.694;2023-08-20T14:41:34;7.68;;;1.40;;
62724;SDS011;49026;52.600;4.694;2023-08-20T14:43:59;5.03;;;1.17;;
62724;SDS011;49026;52.600;4.694;2023-08-20T14:46:28;5.28;;;1.42;;
62724;SDS011;49026;52.600;4.694;2023-08-20T14:48:57;7.72;;;1.75;;
62724;SDS011;49026;52.600;4.694;2023-08-20T14:51:22;5.43;;;1.00;;
62724;SDS011;49026;52.600;4.694;2023-08-20T14:53:48;8.50;;;1.55;;
62724;SDS011;49026;52.600;4.694;2023-08-20T14:56:13;5.78;;;1.08;;
62724;SDS011;49026;52.600;4.694;2023-08-20T14:58:39;5.68;;;1.20;;
62724;SDS011;49026;52.600;4.694;2023-08-20T15:01:04;7.05;;;1.15;;
62724;SDS011;49026;52.600;4.694;2023-08-20T15:03:30;6.72;;;1.20;;
62724;SDS011;49026;52.600;4.694;2023-08-20T15:05:55;7.72;;;1.25;;